sensor_id;sensor_type;location;lat;lon;timestamp;P1;durP1;ratioP1;P2;durP2;ratioP2
68583;SDS011;55557;49.220;11.150;2023-03-14T00:00:11;1.73;;;0.87;;
68583;SDS011;55557;49.220;11.150;2023-03-14T00:02:38;1.27;;;0.50;;
68583;SDS011;55557;49.220;11.150;2023-03-14T00:05:04;2.23;;;0.90;;
68583;SDS011;55557;49.220;11.150;2023-03-14T00:07:34;1.70;;;1.40;;
68583;SDS011;55557;49.220;11.150;2023-03-14T00:10:04;1.50;;;1.10;;
68583;SDS011;55557;49.220;11.150;2023-03-14T00:12:38;1.93;;;1.00;;
68583;SDS011;55557;49.220;11.150;2023-03-14T00:15:05;2.03;;;0.93;;
68583;SDS011;55557;49.220;11.150;2023-03-14T00:17:32;2.60;;;0.87;;
68583;SDS011;55557;49.220;11.150;2023-03-14T00:19:58;1.57;;;1.33;;
68583;SDS011;55557;49.220;11.150;2023-03-14T00:22:30;1.97;;;0.90;;
68583;SDS011;55557;49.220;11.150;2023-03-14T00:24:57;0.83;;;0.63;;
68583;SDS011;55557;49.220;11.150;2023-03-14T00:27:23;1.33;;;0.70;;
68583;SDS011;55557;49.220;11.150;2023-03-14T00:29:49;1.37;;;0.60;;
68583;SDS011;55557;49.220;11.150;2023-03-14T00:32:15;2.40;;;0.60;;
68583;SDS011;55557;49.220;11.150;2023-03-14T00:34:41;0.30;;;0.30;;
68583;SDS011;55557;49.220;11.150;2023-03-14T00:37:07;1.30;;;0.40;;
68583;SDS011;55557;49.220;11.150;2023-03-14T00:39:33;0.37;;;0.20;;
68583;SDS011;55557;49.220;11.150;2023-03-14T00:41:59;0.47;;;0.47;;
68583;SDS011;55557;49.220;11.150;2023-03-14T00:44:25;0.20;;;0.20;;
68583;SDS011;55557;49.220;11.150;2023-03-14T00:46:51;0.57;;;0.20;;
68583;SDS011;55557;49.220;11.150;2023-03-14T00:49:17;2.63;;;0.10;;
68583;SDS011;55557;49.220;11.150;2023-03-14T00:51:43;0.13;;;0.13;;
68583;SDS011;55557;49.220;11.150;2023-03-14T00:54:09;0.20;;;0.20;;
68583;SDS011;55557;49.220;11.150;2023-03-14T00:56:35;0.30;;;0.30;;
68583;SDS011;55557;49.220;11.150;2023-03-14T00:59:01;0.83;;;0.30;;
68583;SDS011;55557;49.220;11.150;2023-03-14T01:01:27;0.20;;;0.20;;
68583;SDS011;55557;49.220;11.150;2023-03-14T01:03:54;2.33;;;0.30;;
68583;SDS011;55557;49.220;11.150;2023-03-14T01:06:25;0.67;;;0.30;;
68583;SDS011;55557;49.220;11.150;2023-03-14T01:08:52;0.50;;;0.30;;
68583;SDS011;55557;49.220;11.150;2023-03-14T01:11:19;1.23;;;0.30;;
68583;SDS011;55557;49.220;11.150;2023-03-14T01:13:45;0.30;;;0.30;;
68583;SDS011;55557;49.220;11.150;2023-03-14T01:16:15;0.13;;;0.13;;
68583;SDS011;55557;49.220;11.150;2023-03-14T01:18:41;0.20;;;0.20;;
68583;SDS011;55557;49.220;11.150;2023-03-14T01:21:28;1.83;;;0.20;;
68583;SDS011;55557;49.220;11.150;2023-03-14T01:23:54;0.70;;;0.30;;
68583;SDS011;55557;49.220;11.150;2023-03-14T01:26:22;0.10;;;0.10;;
68583;SDS011;55557;49.220;11.150;2023-03-14T01:28:49;0.63;;;0.30;;
68583;SDS011;55557;49.220;11.150;2023-03-14T01:31:15;0.50;;;0.27;;
68583;SDS011;55557;49.220;11.150;2023-03-14T01:33:41;0.50;;;0.33;;
68583;SDS011;55557;49.220;11.150;2023-03-14T01:36:08;0.60;;;0.40;;
68583;SDS011;55557;49.220;11.150;2023-03-14T01:38:35;0.20;;;0.20;;
68583;SDS011;55557;49.220;11.150;2023-03-14T01:41:01;0.17;;;0.17;;
68583;SDS011;55557;49.220;11.150;2023-03-14T01:43:28;0.63;;;0.27;;
68583;SDS011;55557;49.220;11.150;2023-03-14T01:48:24;0.20;;;0.20;;
68583;SDS011;55557;49.220;11.150;2023-03-14T01:50:51;0.30;;;0.20;;
68583;SDS011;55557;49.220;11.150;2023-03-14T01:53:17;0.73;;;0.20;;
68583;SDS011;55557;49.220;11.150;2023-03-14T01:55:46;0.10;;;0.10;;
68583;SDS011;55557;49.220;11.150;2023-03-14T01:58:12;0.93;;;0.30;;
68583;SDS011;55557;49.220;11.150;2023-03-14T02:00:38;0.30;;;0.30;;
68583;SDS011;55557;49.220;11.150;2023-03-14T02:03:07;0.10;;;0.10;;
68583;SDS011;55557;49.220;11.150;2023-03-14T02:05:35;0.30;;;0.30;;
68583;SDS011;55557;49.220;11.150;2023-03-14T02:08:04;0.20;;;0.20;;
68583;SDS011;55557;49.220;11.150;2023-03-14T02:10:35;0.40;;;0.30;;
68583;SDS011;55557;49.220;11.150;2023-03-14T02:13:03;0.10;;;0.10;;
68583;SDS011;55557;49.220;11.150;2023-03-14T02:15:30;0.87;;;0.30;;
68583;SDS011;55557;49.220;11.150;2023-03-14T02:17:56;0.23;;;0.23;;
68583;SDS011;55557;49.220;11.150;2023-03-14T02:22:54;1.23;;;0.30;;
68583;SDS011;55557;49.220;11.150;2023-03-14T02:25:43;2.53;;;0.20;;
68583;SDS011;55557;49.220;11.150;2023-03-14T02:28:07;1.97;;;0.30;;
68583;SDS011;55557;49.220;11.150;2023-03-14T02:30:33;0.30;;;0.30;;
68583;SDS011;55557;49.220;11.150;2023-03-14T02:35:34;1.33;;;0.30;;
68583;SDS011;55557;49.220;11.150;2023-03-14T02:38:03;0.20;;;0.20;;
68583;SDS011;55557;49.220;11.150;2023-03-14T02:40:32;1.67;;;0.30;;
68583;SDS011;55557;49.220;11.150;2023-03-14T02:42:58;0.40;;;0.33;;
68583;SDS011;55557;49.220;11.150;2023-03-14T02:47:58;0.40;;;0.40;;
68583;SDS011;55557;49.220;11.150;2023-03-14T02:50:26;0.83;;;0.50;;
68583;SDS011;55557;49.220;11.150;2023-03-14T02:52:54;0.27;;;0.27;;
68583;SDS011;55557;49.220;11.150;2023-03-14T02:55:21;0.40;;;0.40;;
68583;SDS011;55557;49.220;11.150;2023-03-14T02:57:47;1.83;;;0.40;;
68583;SDS011;55557;49.220;11.150;2023-03-14T03:00:13;0.40;;;0.40;;
68583;SDS011;55557;49.220;11.150;2023-03-14T03:02:39;0.40;;;0.37;;
68583;SDS011;55557;49.220;11.150;2023-03-14T03:05:06;0.23;;;0.23;;
68583;SDS011;55557;49.220;11.150;2023-03-14T03:07:32;0.30;;;0.30;;
68583;SDS011;55557;49.220;11.150;2023-03-14T03:09:58;0.30;;;0.20;;
68583;SDS011;55557;49.220;11.150;2023-03-14T03:12:24;0.73;;;0.10;;
68583;SDS011;55557;49.220;11.150;2023-03-14T03:14:50;0.20;;;0.20;;
68583;SDS011;55557;49.220;11.150;2023-03-14T03:17:16;1.60;;;0.20;;
68583;SDS011;55557;49.220;11.150;2023-03-14T03:19:42;0.30;;;0.30;;
68583;SDS011;55557;49.220;11.150;2023-03-14T03:22:09;0.20;;;0.20;;
68583;SDS011;55557;49.220;11.150;2023-03-14T03:24:35;0.10;;;0.10;;
68583;SDS011;55557;49.220;11.150;2023-03-14T03:27:01;0.27;;;0.27;;
68583;SDS011;55557;49.220;11.150;2023-03-14T03:29:27;0.20;;;0.20;;
68583;SDS011;55557;49.220;11.150;2023-03-14T03:31:53;0.20;;;0.20;;
68583;SDS011;55557;49.220;11.150;2023-03-14T03:34:19;0.20;;;0.20;;
68583;SDS011;55557;49.220;11.150;2023-03-14T03:36:45;0.10;;;0.10;;
68583;SDS011;55557;49.220;11.150;2023-03-14T03:39:11;1.30;;;0.10;;
68583;SDS011;55557;49.220;11.150;2023-03-14T03:41:37;3.20;;;0.17;;
68583;SDS011;55557;49.220;11.150;2023-03-14T03:44:03;0.13;;;0.13;;
68583;SDS011;55557;49.220;11.150;2023-03-14T03:46:30;0.20;;;0.20;;
68583;SDS011;55557;49.220;11.150;2023-03-14T03:48:57;0.23;;;0.20;;
68583;SDS011;55557;49.220;11.150;2023-03-14T03:51:24;0.20;;;0.20;;
68583;SDS011;55557;49.220;11.150;2023-03-14T03:53:50;0.57;;;0.40;;
68583;SDS011;55557;49.220;11.150;2023-03-14T03:56:16;0.10;;;0.10;;
68583;SDS011;55557;49.220;11.150;2023-03-14T03:58:42;0.10;;;0.10;;
68583;SDS011;55557;49.220;11.150;2023-03-14T04:01:09;1.27;;;0.40;;
68583;SDS011;55557;49.220;11.150;2023-03-14T04:03:35;0.20;;;0.20;;
68583;SDS011;55557;49.220;11.150;2023-03-14T04:06:12;0.17;;;0.17;;
68583;SDS011;55557;49.220;11.150;2023-03-14T04:08:39;0.30;;;0.20;;
68583;SDS011;55557;49.220;11.150;2023-03-14T04:11:06;1.70;;;0.43;;
68583;SDS011;55557;49.220;11.150;2023-03-14T04:13:32;0.20;;;0.20;;
68583;SDS011;55557;49.220;11.150;2023-03-14T04:15:58;0.13;;;0.13;;
68583;SDS011;55557;49.220;11.150;2023-03-14T04:18:25;0.20;;;0.20;;
68583;SDS011;55557;49.220;11.150;2023-03-14T04:20:52;0.67;;;0.47;;
68583;SDS011;55557;49.220;11.150;2023-03-14T04:23:18;1.60;;;0.20;;
68583;SDS011;55557;49.220;11.150;2023-03-14T04:25:44;1.37;;;0.30;;
68583;SDS011;55557;49.220;11.150;2023-03-14T04:28:10;0.20;;;0.20;;
68583;SDS011;55557;49.220;11.150;2023-03-14T04:30:36;0.20;;;0.20;;
68583;SDS011;55557;49.220;11.150;2023-03-14T04:33:02;1.53;;;0.50;;
68583;SDS011;55557;49.220;11.150;2023-03-14T04:35:30;1.30;;;0.43;;
68583;SDS011;55557;49.220;11.150;2023-03-14T04:37:56;0.27;;;0.23;;
68583;SDS011;55557;49.220;11.150;2023-03-14T04:40:22;0.77;;;0.43;;
68583;SDS011;55557;49.220;11.150;2023-03-14T04:42:48;0.33;;;0.33;;
68583;SDS011;55557;49.220;11.150;2023-03-14T04:45:14;0.30;;;0.30;;
68583;SDS011;55557;49.220;11.150;2023-03-14T04:47:40;0.30;;;0.30;;
68583;SDS011;55557;49.220;11.150;2023-03-14T04:50:06;0.63;;;0.50;;
68583;SDS011;55557;49.220;11.150;2023-03-14T04:52:32;0.33;;;0.33;;
68583;SDS011;55557;49.220;11.150;2023-03-14T04:54:58;0.60;;;0.33;;
68583;SDS011;55557;49.220;11.150;2023-03-14T04:57:24;0.20;;;0.20;;
68583;SDS011;55557;49.220;11.150;2023-03-14T04:59:50;1.40;;;0.60;;
68583;SDS011;55557;49.220;11.150;2023-03-14T05:02:17;2.50;;;1.40;;
68583;SDS011;55557;49.220;11.150;2023-03-14T05:04:45;0.60;;;0.60;;
68583;SDS011;55557;49.220;11.150;2023-03-14T05:07:11;0.60;;;0.60;;
68583;SDS011;55557;49.220;11.150;2023-03-14T05:09:37;2.00;;;1.27;;
68583;SDS011;55557;49.220;11.150;2023-03-14T05:12:03;1.50;;;0.87;;
68583;SDS011;55557;49.220;11.150;2023-03-14T05:14:32;1.20;;;1.10;;
68583;SDS011;55557;49.220;11.150;2023-03-14T05:16:58;0.43;;;0.43;;
68583;SDS011;55557;49.220;11.150;2023-03-14T05:19:24;0.60;;;0.50;;
68583;SDS011;55557;49.220;11.150;2023-03-14T05:21:50;2.80;;;0.40;;
68583;SDS011;55557;49.220;11.150;2023-03-14T05:24:16;0.70;;;0.70;;
68583;SDS011;55557;49.220;11.150;2023-03-14T05:26:42;1.13;;;0.77;;
68583;SDS011;55557;49.220;11.150;2023-03-14T05:29:08;0.70;;;0.70;;
68583;SDS011;55557;49.220;11.150;2023-03-14T05:31:34;1.10;;;1.00;;
68583;SDS011;55557;49.220;11.150;2023-03-14T05:34:00;0.93;;;0.93;;
68583;SDS011;55557;49.220;11.150;2023-03-14T05:36:26;0.90;;;0.90;;
68583;SDS011;55557;49.220;11.150;2023-03-14T05:38:52;1.40;;;1.10;;
68583;SDS011;55557;49.220;11.150;2023-03-14T05:41:18;0.80;;;0.80;;
68583;SDS011;55557;49.220;11.150;2023-03-14T05:43:44;0.83;;;0.83;;
68583;SDS011;55557;49.220;11.150;2023-03-14T05:46:10;2.13;;;1.40;;
68583;SDS011;55557;49.220;11.150;2023-03-14T05:48:36;1.20;;;1.10;;
68583;SDS011;55557;49.220;11.150;2023-03-14T05:51:02;1.23;;;1.10;;
68583;SDS011;55557;49.220;11.150;2023-03-14T05:53:28;3.37;;;0.80;;
68583;SDS011;55557;49.220;11.150;2023-03-14T05:55:55;0.80;;;0.80;;
68583;SDS011;55557;49.220;11.150;2023-03-14T05:58:21;1.03;;;0.93;;
68583;SDS011;55557;49.220;11.150;2023-03-14T06:00:47;1.63;;;1.10;;
68583;SDS011;55557;49.220;11.150;2023-03-14T06:03:13;1.40;;;1.30;;
68583;SDS011;55557;49.220;11.150;2023-03-14T06:05:39;1.73;;;1.03;;
68583;SDS011;55557;49.220;11.150;2023-03-14T06:08:05;2.07;;;1.37;;
68583;SDS011;55557;49.220;11.150;2023-03-14T06:10:31;2.27;;;1.57;;
68583;SDS011;55557;49.220;11.150;2023-03-14T06:12:57;1.60;;;1.50;;
68583;SDS011;55557;49.220;11.150;2023-03-14T06:15:23;1.23;;;1.13;;
68583;SDS011;55557;49.220;11.150;2023-03-14T06:17:49;2.07;;;1.70;;
68583;SDS011;55557;49.220;11.150;2023-03-14T06:20:16;2.47;;;1.23;;
68583;SDS011;55557;49.220;11.150;2023-03-14T06:22:42;1.20;;;1.10;;
68583;SDS011;55557;49.220;11.150;2023-03-14T06:25:08;1.23;;;1.13;;
68583;SDS011;55557;49.220;11.150;2023-03-14T06:27:34;1.60;;;1.20;;
68583;SDS011;55557;49.220;11.150;2023-03-14T06:30:00;1.30;;;0.80;;
68583;SDS011;55557;49.220;11.150;2023-03-14T06:32:26;0.90;;;0.90;;
68583;SDS011;55557;49.220;11.150;2023-03-14T06:34:52;1.60;;;0.80;;
68583;SDS011;55557;49.220;11.150;2023-03-14T06:37:18;1.10;;;1.00;;
68583;SDS011;55557;49.220;11.150;2023-03-14T06:39:44;1.43;;;0.80;;
68583;SDS011;55557;49.220;11.150;2023-03-14T06:42:10;1.70;;;1.23;;
68583;SDS011;55557;49.220;11.150;2023-03-14T06:44:36;1.10;;;1.00;;
68583;SDS011;55557;49.220;11.150;2023-03-14T06:47:02;2.33;;;0.90;;
68583;SDS011;55557;49.220;11.150;2023-03-14T06:49:28;1.50;;;1.17;;
68583;SDS011;55557;49.220;11.150;2023-03-14T06:51:54;0.87;;;0.87;;
68583;SDS011;55557;49.220;11.150;2023-03-14T06:54:21;1.47;;;0.93;;
68583;SDS011;55557;49.220;11.150;2023-03-14T06:56:47;1.13;;;0.80;;
68583;SDS011;55557;49.220;11.150;2023-03-14T06:59:13;0.87;;;0.80;;
68583;SDS011;55557;49.220;11.150;2023-03-14T07:01:39;1.70;;;0.97;;
68583;SDS011;55557;49.220;11.150;2023-03-14T07:04:05;0.80;;;0.80;;
68583;SDS011;55557;49.220;11.150;2023-03-14T07:06:31;0.80;;;0.80;;
68583;SDS011;55557;49.220;11.150;2023-03-14T07:08:58;3.63;;;1.00;;
68583;SDS011;55557;49.220;11.150;2023-03-14T07:11:25;4.07;;;0.83;;
68583;SDS011;55557;49.220;11.150;2023-03-14T07:13:53;1.57;;;0.90;;
68583;SDS011;55557;49.220;11.150;2023-03-14T07:16:19;3.40;;;0.90;;
68583;SDS011;55557;49.220;11.150;2023-03-14T07:18:45;0.70;;;0.70;;
68583;SDS011;55557;49.220;11.150;2023-03-14T07:21:11;1.85;;;0.88;;
68583;SDS011;55557;49.220;11.150;2023-03-14T07:23:37;0.67;;;0.67;;
68583;SDS011;55557;49.220;11.150;2023-03-14T07:26:06;1.47;;;0.83;;
68583;SDS011;55557;49.220;11.150;2023-03-14T07:28:32;0.80;;;0.67;;
68583;SDS011;55557;49.220;11.150;2023-03-14T07:30:58;3.07;;;0.53;;
68583;SDS011;55557;49.220;11.150;2023-03-14T07:33:43;0.50;;;0.50;;
68583;SDS011;55557;49.220;11.150;2023-03-14T07:36:09;1.10;;;0.67;;
68583;SDS011;55557;49.220;11.150;2023-03-14T07:38:35;0.43;;;0.43;;
68583;SDS011;55557;49.220;11.150;2023-03-14T07:41:01;0.47;;;0.43;;
68583;SDS011;55557;49.220;11.150;2023-03-14T07:43:28;0.60;;;0.60;;
68583;SDS011;55557;49.220;11.150;2023-03-14T07:45:54;2.13;;;0.70;;
68583;SDS011;55557;49.220;11.150;2023-03-14T07:48:20;0.70;;;0.70;;
68583;SDS011;55557;49.220;11.150;2023-03-14T07:50:50;0.40;;;0.40;;
68583;SDS011;55557;49.220;11.150;2023-03-14T07:53:17;3.90;;;0.57;;
68583;SDS011;55557;49.220;11.150;2023-03-14T07:55:43;1.80;;;0.63;;
68583;SDS011;55557;49.220;11.150;2023-03-14T07:58:09;3.10;;;0.73;;
68583;SDS011;55557;49.220;11.150;2023-03-14T08:00:35;0.63;;;0.50;;
68583;SDS011;55557;49.220;11.150;2023-03-14T08:03:01;0.57;;;0.57;;
68583;SDS011;55557;49.220;11.150;2023-03-14T08:05:28;1.23;;;0.70;;
68583;SDS011;55557;49.220;11.150;2023-03-14T08:07:54;0.67;;;0.60;;
68583;SDS011;55557;49.220;11.150;2023-03-14T08:10:20;0.70;;;0.53;;
68583;SDS011;55557;49.220;11.150;2023-03-14T08:12:47;0.80;;;0.60;;
68583;SDS011;55557;49.220;11.150;2023-03-14T08:15:13;1.60;;;0.73;;
68583;SDS011;55557;49.220;11.150;2023-03-14T08:17:39;1.00;;;0.80;;
68583;SDS011;55557;49.220;11.150;2023-03-14T08:20:05;3.03;;;0.43;;
68583;SDS011;55557;49.220;11.150;2023-03-14T08:22:33;3.40;;;0.50;;
68583;SDS011;55557;49.220;11.150;2023-03-14T08:24:58;1.83;;;0.70;;
68583;SDS011;55557;49.220;11.150;2023-03-14T08:27:24;0.83;;;0.40;;
68583;SDS011;55557;49.220;11.150;2023-03-14T08:29:50;1.47;;;0.53;;
68583;SDS011;55557;49.220;11.150;2023-03-14T08:32:16;1.70;;;0.80;;
68583;SDS011;55557;49.220;11.150;2023-03-14T08:34:44;0.83;;;0.50;;
68583;SDS011;55557;49.220;11.150;2023-03-14T08:37:10;2.63;;;0.60;;
68583;SDS011;55557;49.220;11.150;2023-03-14T08:39:36;2.57;;;0.40;;
68583;SDS011;55557;49.220;11.150;2023-03-14T08:42:02;1.00;;;0.57;;
68583;SDS011;55557;49.220;11.150;2023-03-14T08:44:28;1.10;;;0.27;;
68583;SDS011;55557;49.220;11.150;2023-03-14T08:46:55;0.50;;;0.50;;
68583;SDS011;55557;49.220;11.150;2023-03-14T08:49:21;1.93;;;0.67;;
68583;SDS011;55557;49.220;11.150;2023-03-14T08:51:47;0.30;;;0.30;;
68583;SDS011;55557;49.220;11.150;2023-03-14T08:54:13;0.77;;;0.47;;
68583;SDS011;55557;49.220;11.150;2023-03-14T08:56:39;1.43;;;0.70;;
68583;SDS011;55557;49.220;11.150;2023-03-14T08:59:05;1.80;;;0.43;;
68583;SDS011;55557;49.220;11.150;2023-03-14T09:01:31;0.43;;;0.37;;
68583;SDS011;55557;49.220;11.150;2023-03-14T09:03:57;0.57;;;0.40;;
68583;SDS011;55557;49.220;11.150;2023-03-14T09:06:23;0.50;;;0.40;;
68583;SDS011;55557;49.220;11.150;2023-03-14T09:08:49;1.53;;;0.73;;
68583;SDS011;55557;49.220;11.150;2023-03-14T09:11:15;1.83;;;0.60;;
68583;SDS011;55557;49.220;11.150;2023-03-14T09:13:42;1.83;;;0.47;;
68583;SDS011;55557;49.220;11.150;2023-03-14T09:16:08;1.23;;;0.63;;
68583;SDS011;55557;49.220;11.150;2023-03-14T09:18:34;0.83;;;0.53;;
68583;SDS011;55557;49.220;11.150;2023-03-14T09:21:00;0.93;;;0.50;;
68583;SDS011;55557;49.220;11.150;2023-03-14T09:23:26;1.73;;;0.80;;
68583;SDS011;55557;49.220;11.150;2023-03-14T09:25:56;0.53;;;0.50;;
68583;SDS011;55557;49.220;11.150;2023-03-14T09:28:22;0.40;;;0.33;;
68583;SDS011;55557;49.220;11.150;2023-03-14T09:30:48;2.10;;;0.70;;
68583;SDS011;55557;49.220;11.150;2023-03-14T09:33:15;0.90;;;0.43;;
68583;SDS011;55557;49.220;11.150;2023-03-14T09:35:41;0.43;;;0.40;;
68583;SDS011;55557;49.220;11.150;2023-03-14T09:38:07;5.07;;;0.70;;
68583;SDS011;55557;49.220;11.150;2023-03-14T09:40:36;1.93;;;0.60;;
68583;SDS011;55557;49.220;11.150;2023-03-14T09:43:03;0.60;;;0.50;;
68583;SDS011;55557;49.220;11.150;2023-03-14T09:45:31;2.27;;;0.50;;
68583;SDS011;55557;49.220;11.150;2023-03-14T09:47:59;0.50;;;0.43;;
68583;SDS011;55557;49.220;11.150;2023-03-14T09:50:26;1.70;;;0.60;;
68583;SDS011;55557;49.220;11.150;2023-03-14T09:52:55;2.00;;;0.50;;
68583;SDS011;55557;49.220;11.150;2023-03-14T09:55:22;0.20;;;0.20;;
68583;SDS011;55557;49.220;11.150;2023-03-14T09:57:48;0.97;;;0.73;;
68583;SDS011;55557;49.220;11.150;2023-03-14T10:00:17;3.17;;;0.43;;
68583;SDS011;55557;49.220;11.150;2023-03-14T10:02:47;2.70;;;0.53;;
68583;SDS011;55557;49.220;11.150;2023-03-14T10:05:16;1.03;;;0.40;;
68583;SDS011;55557;49.220;11.150;2023-03-14T10:07:42;1.23;;;0.53;;
68583;SDS011;55557;49.220;11.150;2023-03-14T10:10:13;0.87;;;0.40;;
68583;SDS011;55557;49.220;11.150;2023-03-14T10:12:44;0.33;;;0.33;;
68583;SDS011;55557;49.220;11.150;2023-03-14T10:15:11;2.77;;;0.50;;
68583;SDS011;55557;49.220;11.150;2023-03-14T10:17:40;2.60;;;0.40;;
68583;SDS011;55557;49.220;11.150;2023-03-14T10:20:14;2.07;;;0.50;;
68583;SDS011;55557;49.220;11.150;2023-03-14T10:22:52;2.60;;;0.90;;
68583;SDS011;55557;49.220;11.150;2023-03-14T10:25:26;0.97;;;0.57;;
68583;SDS011;55557;49.220;11.150;2023-03-14T10:27:52;1.97;;;0.40;;
68583;SDS011;55557;49.220;11.150;2023-03-14T10:30:29;0.97;;;0.33;;
68583;SDS011;55557;49.220;11.150;2023-03-14T10:32:56;2.93;;;0.87;;
68583;SDS011;55557;49.220;11.150;2023-03-14T10:35:22;0.60;;;0.40;;
68583;SDS011;55557;49.220;11.150;2023-03-14T10:37:53;2.30;;;0.63;;
68583;SDS011;55557;49.220;11.150;2023-03-14T10:40:24;0.10;;;0.10;;
68583;SDS011;55557;49.220;11.150;2023-03-14T10:42:51;0.87;;;0.60;;
68583;SDS011;55557;49.220;11.150;2023-03-14T10:47:59;2.10;;;0.53;;
68583;SDS011;55557;49.220;11.150;2023-03-14T10:52:52;1.50;;;0.63;;
68583;SDS011;55557;49.220;11.150;2023-03-14T10:55:18;0.80;;;0.33;;
68583;SDS011;55557;49.220;11.150;2023-03-14T10:57:44;2.97;;;0.50;;
68583;SDS011;55557;49.220;11.150;2023-03-14T11:00:17;0.77;;;0.60;;
68583;SDS011;55557;49.220;11.150;2023-03-14T11:02:57;0.60;;;0.50;;
68583;SDS011;55557;49.220;11.150;2023-03-14T11:05:29;0.93;;;0.30;;
68583;SDS011;55557;49.220;11.150;2023-03-14T11:08:02;0.63;;;0.43;;
68583;SDS011;55557;49.220;11.150;2023-03-14T11:10:33;2.97;;;0.47;;
68583;SDS011;55557;49.220;11.150;2023-03-14T11:13:14;1.30;;;0.57;;
68583;SDS011;55557;49.220;11.150;2023-03-14T11:16:04;5.20;;;0.90;;
68583;SDS011;55557;49.220;11.150;2023-03-14T11:21:13;1.10;;;0.60;;
68583;SDS011;55557;49.220;11.150;2023-03-14T11:28:37;0.97;;;0.80;;
68583;SDS011;55557;49.220;11.150;2023-03-14T11:31:47;0.93;;;0.30;;
68583;SDS011;55557;49.220;11.150;2023-03-14T11:36:29;1.53;;;0.67;;
68583;SDS011;55557;49.220;11.150;2023-03-14T11:38:57;0.93;;;0.53;;
68583;SDS011;55557;49.220;11.150;2023-03-14T11:41:35;0.83;;;0.57;;
68583;SDS011;55557;49.220;11.150;2023-03-14T11:44:45;2.20;;;0.80;;
68583;SDS011;55557;49.220;11.150;2023-03-14T11:51:54;0.57;;;0.50;;
68583;SDS011;55557;49.220;11.150;2023-03-14T11:57:31;2.87;;;0.20;;
68583;SDS011;55557;49.220;11.150;2023-03-14T12:00:04;0.60;;;0.60;;
68583;SDS011;55557;49.220;11.150;2023-03-14T12:10:29;0.60;;;0.60;;
68583;SDS011;55557;49.220;11.150;2023-03-14T12:12:55;0.30;;;0.30;;
68583;SDS011;55557;49.220;11.150;2023-03-14T12:15:21;0.73;;;0.50;;
68583;SDS011;55557;49.220;11.150;2023-03-14T12:17:53;1.37;;;0.30;;
68583;SDS011;55557;49.220;11.150;2023-03-14T12:20:23;0.47;;;0.40;;
68583;SDS011;55557;49.220;11.150;2023-03-14T12:22:50;0.60;;;0.33;;
68583;SDS011;55557;49.220;11.150;2023-03-14T12:25:21;2.23;;;0.40;;
68583;SDS011;55557;49.220;11.150;2023-03-14T12:30:27;1.10;;;0.43;;
68583;SDS011;55557;49.220;11.150;2023-03-14T12:35:33;1.90;;;0.30;;
68583;SDS011;55557;49.220;11.150;2023-03-14T12:37:59;0.20;;;0.20;;
68583;SDS011;55557;49.220;11.150;2023-03-14T12:40:26;0.20;;;0.20;;
68583;SDS011;55557;49.220;11.150;2023-03-14T12:42:59;0.20;;;0.20;;
68583;SDS011;55557;49.220;11.150;2023-03-14T12:45:27;1.17;;;0.43;;
68583;SDS011;55557;49.220;11.150;2023-03-14T12:50:21;0.63;;;0.40;;
68583;SDS011;55557;49.220;11.150;2023-03-14T12:55:21;1.40;;;0.50;;
68583;SDS011;55557;49.220;11.150;2023-03-14T12:58:12;0.67;;;0.67;;
68583;SDS011;55557;49.220;11.150;2023-03-14T13:00:46;0.83;;;0.50;;
68583;SDS011;55557;49.220;11.150;2023-03-14T13:03:20;0.50;;;0.40;;
68583;SDS011;55557;49.220;11.150;2023-03-14T13:05:57;0.13;;;0.13;;
68583;SDS011;55557;49.220;11.150;2023-03-14T13:08:42;0.43;;;0.43;;
68583;SDS011;55557;49.220;11.150;2023-03-14T13:11:20;2.00;;;0.60;;
68583;SDS011;55557;49.220;11.150;2023-03-14T13:13:52;1.03;;;0.37;;
68583;SDS011;55557;49.220;11.150;2023-03-14T13:16:21;1.50;;;1.17;;
68583;SDS011;55557;49.220;11.150;2023-03-14T13:18:48;1.63;;;0.70;;
68583;SDS011;55557;49.220;11.150;2023-03-14T13:21:20;0.83;;;0.70;;
68583;SDS011;55557;49.220;11.150;2023-03-14T13:26:21;0.40;;;0.30;;
68583;SDS011;55557;49.220;11.150;2023-03-14T13:28:48;0.63;;;0.40;;
68583;SDS011;55557;49.220;11.150;2023-03-14T13:31:24;0.40;;;0.40;;
68583;SDS011;55557;49.220;11.150;2023-03-14T13:34:00;2.17;;;0.77;;
68583;SDS011;55557;49.220;11.150;2023-03-14T13:36:26;0.87;;;0.63;;
68583;SDS011;55557;49.220;11.150;2023-03-14T13:38:59;1.47;;;0.97;;
68583;SDS011;55557;49.220;11.150;2023-03-14T13:41:26;4.63;;;0.80;;
68583;SDS011;55557;49.220;11.150;2023-03-14T13:43:55;3.27;;;0.93;;
68583;SDS011;55557;49.220;11.150;2023-03-14T13:46:23;1.60;;;0.70;;
68583;SDS011;55557;49.220;11.150;2023-03-14T13:48:54;1.33;;;0.90;;
68583;SDS011;55557;49.220;11.150;2023-03-14T13:51:21;3.37;;;0.60;;
68583;SDS011;55557;49.220;11.150;2023-03-14T13:53:49;0.10;;;0.10;;
68583;SDS011;55557;49.220;11.150;2023-03-14T13:56:16;0.67;;;0.40;;
68583;SDS011;55557;49.220;11.150;2023-03-14T13:58:42;1.43;;;1.00;;
68583;SDS011;55557;49.220;11.150;2023-03-14T14:01:13;0.57;;;0.57;;
68583;SDS011;55557;49.220;11.150;2023-03-14T14:03:41;5.80;;;2.10;;
68583;SDS011;55557;49.220;11.150;2023-03-14T14:06:09;3.17;;;1.90;;
68583;SDS011;55557;49.220;11.150;2023-03-14T14:08:36;3.47;;;1.70;;
68583;SDS011;55557;49.220;11.150;2023-03-14T14:11:05;4.73;;;2.27;;
68583;SDS011;55557;49.220;11.150;2023-03-14T14:13:32;5.87;;;2.83;;
68583;SDS011;55557;49.220;11.150;2023-03-14T14:15:59;5.27;;;2.80;;
68583;SDS011;55557;49.220;11.150;2023-03-14T14:18:26;3.33;;;2.10;;
68583;SDS011;55557;49.220;11.150;2023-03-14T14:20:53;1.30;;;0.90;;
68583;SDS011;55557;49.220;11.150;2023-03-14T14:23:20;3.03;;;1.47;;
68583;SDS011;55557;49.220;11.150;2023-03-14T14:25:50;0.83;;;0.80;;
68583;SDS011;55557;49.220;11.150;2023-03-14T14:28:30;3.27;;;1.00;;
68583;SDS011;55557;49.220;11.150;2023-03-14T14:31:38;3.60;;;1.73;;
68583;SDS011;55557;49.220;11.150;2023-03-14T14:34:02;5.33;;;2.43;;
68583;SDS011;55557;49.220;11.150;2023-03-14T14:36:30;5.23;;;2.90;;
68583;SDS011;55557;49.220;11.150;2023-03-14T14:38:57;2.13;;;1.77;;
68583;SDS011;55557;49.220;11.150;2023-03-14T14:41:27;2.23;;;2.03;;
68583;SDS011;55557;49.220;11.150;2023-03-14T14:43:54;2.47;;;2.27;;
68583;SDS011;55557;49.220;11.150;2023-03-14T14:46:20;1.50;;;1.40;;
68583;SDS011;55557;49.220;11.150;2023-03-14T14:48:46;1.23;;;1.07;;
68583;SDS011;55557;49.220;11.150;2023-03-14T14:51:27;0.70;;;0.70;;
68583;SDS011;55557;49.220;11.150;2023-03-14T14:54:02;1.27;;;0.70;;
68583;SDS011;55557;49.220;11.150;2023-03-14T14:56:28;2.03;;;1.10;;
68583;SDS011;55557;49.220;11.150;2023-03-14T14:58:58;1.20;;;1.10;;
68583;SDS011;55557;49.220;11.150;2023-03-14T15:01:30;1.77;;;1.00;;
68583;SDS011;55557;49.220;11.150;2023-03-14T15:03:57;1.10;;;0.70;;
68583;SDS011;55557;49.220;11.150;2023-03-14T15:06:24;2.70;;;1.30;;
68583;SDS011;55557;49.220;11.150;2023-03-14T15:08:52;1.23;;;0.97;;
68583;SDS011;55557;49.220;11.150;2023-03-14T15:11:20;4.70;;;1.17;;
68583;SDS011;55557;49.220;11.150;2023-03-14T15:13:47;1.03;;;0.97;;
68583;SDS011;55557;49.220;11.150;2023-03-14T15:16:14;2.27;;;1.13;;
68583;SDS011;55557;49.220;11.150;2023-03-14T15:18:41;1.30;;;1.20;;
68583;SDS011;55557;49.220;11.150;2023-03-14T15:21:08;3.83;;;1.20;;
68583;SDS011;55557;49.220;11.150;2023-03-14T15:23:35;2.10;;;1.30;;
68583;SDS011;55557;49.220;11.150;2023-03-14T15:26:01;1.40;;;1.30;;
68583;SDS011;55557;49.220;11.150;2023-03-14T15:28:28;2.23;;;1.30;;
68583;SDS011;55557;49.220;11.150;2023-03-14T15:30:55;2.80;;;1.30;;